createdAt,value
2017-08-07T00:02:12.941Z,13.43
2017-08-07T00:04:42.262Z,13.63
2017-08-07T00:07:10.357Z,10.70
2017-08-07T00:09:38.444Z,12.83
2017-08-07T00:12:06.652Z,13.37
2017-08-07T00:14:34.700Z,11.77
2017-08-07T00:17:02.769Z,11.40
2017-08-07T00:19:31.108Z,12.90
2017-08-07T00:21:59.212Z,11.17
2017-08-07T00:24:27.269Z,12.07
2017-08-07T00:26:55.394Z,12.57
2017-08-07T00:29:23.468Z,11.90
2017-08-07T00:31:51.501Z,12.47
2017-08-07T00:34:19.654Z,11.30
2017-08-07T00:36:47.724Z,11.47
2017-08-07T00:39:15.766Z,11.40
2017-08-07T00:41:43.914Z,11.00
2017-08-07T00:44:11.946Z,11.10
2017-08-07T00:46:39.999Z,10.93
2017-08-07T00:49:08.165Z,11.40
2017-08-07T00:51:36.288Z,10.43
2017-08-07T00:54:04.326Z,10.13
2017-08-07T00:56:32.512Z,11.37
2017-08-07T00:59:00.592Z,10.93
2017-08-07T01:01:28.653Z,9.40
2017-08-07T01:03:56.848Z,9.80
2017-08-07T01:06:25.017Z,10.03
2017-08-07T01:08:53.109Z,9.57
2017-08-07T01:11:21.267Z,9.40
2017-08-07T01:13:49.310Z,10.10
2017-08-07T01:16:17.414Z,9.80
2017-08-07T01:18:45.595Z,8.97
2017-08-07T01:21:13.777Z,8.90
2017-08-07T01:23:41.830Z,11.00
2017-08-07T01:26:10.055Z,10.00
2017-08-07T01:28:38.138Z,9.90
2017-08-07T01:31:07.154Z,9.33
2017-08-07T01:33:35.353Z,10.97
2017-08-07T01:36:03.402Z,10.87
2017-08-07T01:38:31.485Z,8.73
2017-08-07T01:40:59.618Z,9.47
2017-08-07T01:43:27.690Z,9.53
2017-08-07T01:45:55.789Z,10.27
2017-08-07T01:48:24.111Z,10.73
2017-08-07T01:50:52.206Z,11.27
2017-08-07T01:53:20.293Z,11.40
2017-08-07T01:55:48.495Z,11.27
2017-08-07T01:58:16.595Z,12.17
2017-08-07T02:00:44.839Z,10.10
2017-08-07T02:03:13.050Z,10.13
2017-08-07T02:05:41.124Z,11.00
2017-08-07T02:08:09.182Z,9.57
2017-08-07T02:10:37.308Z,11.63
2017-08-07T02:13:05.414Z,10.77
2017-08-07T02:15:33.484Z,10.80
2017-08-07T02:18:01.715Z,10.77
2017-08-07T02:20:29.786Z,10.20
2017-08-07T02:22:57.971Z,10.67
2017-08-07T02:25:26.200Z,10.90
2017-08-07T02:27:54.227Z,11.73
2017-08-07T02:30:22.240Z,13.10
2017-08-07T02:32:50.458Z,11.17
2017-08-07T02:35:18.501Z,10.47
2017-08-07T02:37:46.548Z,11.60
2017-08-07T02:40:14.754Z,10.40
2017-08-07T02:42:42.826Z,11.97
2017-08-07T02:45:10.908Z,12.70
2017-08-07T02:47:39.054Z,11.30
2017-08-07T02:50:07.143Z,12.20
2017-08-07T02:52:35.228Z,12.23
2017-08-07T02:55:03.399Z,9.57
2017-08-07T02:57:31.511Z,11.33
2017-08-07T02:59:59.511Z,10.83
2017-08-07T03:02:27.720Z,11.53
2017-08-07T03:04:55.826Z,11.27
2017-08-07T03:07:23.864Z,10.70
2017-08-07T03:09:52.054Z,12.37
2017-08-07T03:12:20.109Z,10.00
2017-08-07T03:14:48.156Z,11.20
2017-08-07T03:17:16.331Z,10.40
2017-08-07T03:19:44.405Z,11.70
2017-08-07T03:22:12.448Z,10.70
2017-08-07T03:24:40.764Z,10.97
2017-08-07T03:27:08.766Z,11.50
2017-08-07T03:29:36.808Z,10.17
2017-08-07T03:32:04.985Z,10.50
2017-08-07T03:34:33.070Z,10.93
2017-08-07T03:37:01.139Z,10.70
2017-08-07T03:39:29.357Z,10.13
2017-08-07T03:41:57.497Z,10.97
2017-08-07T03:44:25.558Z,11.50
2017-08-07T03:46:53.725Z,11.37
2017-08-07T03:49:21.812Z,10.30
2017-08-07T03:51:49.872Z,9.30
2017-08-07T03:54:18.292Z,10.23
2017-08-07T03:56:46.301Z,10.97
2017-08-07T03:59:14.333Z,10.73
2017-08-07T04:01:42.565Z,9.90
2017-08-07T04:04:10.704Z,8.73
2017-08-07T04:06:38.766Z,9.93
2017-08-07T04:09:07.004Z,9.40
2017-08-07T04:11:35.099Z,10.07
2017-08-07T04:14:03.208Z,9.53
2017-08-07T04:16:31.429Z,9.90
2017-08-07T04:18:59.501Z,8.77
2017-08-07T04:21:27.556Z,10.10
2017-08-07T04:23:55.735Z,8.37
2017-08-07T04:26:23.917Z,9.50
2017-08-07T04:28:51.946Z,9.03
2017-08-07T04:31:20.080Z,8.50
2017-08-07T04:33:48.120Z,9.40
2017-08-07T04:36:16.188Z,10.10
2017-08-07T04:38:44.437Z,9.07
2017-08-07T04:41:12.482Z,10.10
2017-08-07T04:43:40.532Z,10.57
2017-08-07T04:46:08.665Z,8.47
2017-08-07T04:48:36.745Z,9.80
2017-08-07T04:51:04.961Z,10.70
2017-08-07T04:53:33.101Z,9.90
2017-08-07T04:56:01.160Z,9.85
2017-08-07T04:58:29.171Z,10.23
2017-08-07T05:00:57.387Z,9.45
2017-08-07T05:03:25.444Z,9.07
2017-08-07T05:05:53.528Z,9.77
2017-08-07T05:08:21.720Z,9.30
2017-08-07T05:10:49.742Z,8.35
2017-08-07T05:13:17.811Z,10.55
2017-08-07T05:15:45.994Z,9.68
2017-08-07T05:18:14.050Z,9.95
2017-08-07T05:20:42.095Z,9.40
2017-08-07T05:23:10.264Z,9.35
2017-08-07T05:25:38.352Z,9.60
2017-08-07T05:28:06.554Z,11.23
2017-08-07T05:30:34.705Z,9.82
2017-08-07T05:33:02.854Z,8.85
2017-08-07T05:35:30.934Z,9.88
2017-08-07T05:37:59.089Z,10.80
2017-08-07T05:40:27.148Z,9.52
2017-08-07T05:42:55.164Z,10.27
2017-08-07T05:45:23.374Z,10.10
2017-08-07T05:47:51.454Z,9.02
2017-08-07T05:50:19.523Z,10.68
2017-08-07T05:52:47.679Z,8.32
2017-08-07T05:55:15.720Z,9.32
2017-08-07T05:57:43.758Z,15.38
2017-08-07T06:00:11.941Z,11.10
2017-08-07T06:02:39.973Z,11.88
2017-08-07T06:05:08.080Z,9.20
2017-08-07T06:07:36.304Z,9.60
2017-08-07T06:10:04.322Z,9.82
2017-08-07T06:12:32.384Z,9.73
2017-08-07T06:15:00.607Z,11.07
2017-08-07T06:17:28.630Z,9.90
2017-08-07T06:19:56.700Z,9.45
2017-08-07T06:22:24.890Z,8.93
2017-08-07T06:24:52.968Z,8.65
2017-08-07T06:27:21.056Z,9.60
2017-08-07T06:29:49.384Z,8.80
2017-08-07T06:32:17.427Z,10.38
2017-08-07T06:34:45.510Z,9.20
2017-08-07T06:37:13.710Z,8.57
2017-08-07T06:39:41.988Z,9.00
2017-08-07T06:42:10.010Z,8.35
2017-08-07T06:44:38.185Z,8.68
2017-08-07T06:47:06.345Z,9.38
2017-08-07T06:49:34.440Z,9.73
2017-08-07T06:52:02.664Z,9.07
2017-08-07T06:54:30.853Z,10.02
2017-08-07T06:56:58.940Z,8.63
2017-08-07T06:59:27.132Z,8.48
2017-08-07T07:01:55.180Z,9.32
2017-08-07T07:04:23.257Z,8.90
2017-08-07T07:06:51.412Z,8.98
2017-08-07T07:09:19.424Z,8.43
2017-08-07T07:11:47.448Z,8.20
2017-08-07T07:14:15.590Z,7.53
2017-08-07T07:16:43.645Z,8.90
2017-08-07T07:19:11.714Z,9.32
2017-08-07T07:21:39.935Z,9.23
2017-08-07T07:24:07.994Z,9.23
2017-08-07T07:26:36.064Z,9.13
2017-08-07T07:29:04.210Z,8.45
2017-08-07T07:31:32.408Z,8.82
2017-08-07T07:34:00.417Z,9.82
2017-08-07T07:36:28.662Z,9.50
2017-08-07T07:38:56.695Z,8.93
2017-08-07T07:41:24.789Z,9.90
2017-08-07T07:43:53.011Z,8.95
2017-08-07T07:46:21.128Z,9.32
2017-08-07T07:48:49.236Z,8.32
2017-08-07T07:51:17.426Z,8.65
2017-08-07T07:53:45.465Z,8.25
2017-08-07T07:56:13.517Z,9.02
2017-08-07T07:58:41.656Z,8.95
2017-08-07T08:01:09.742Z,8.40
2017-08-07T08:03:37.796Z,8.85
2017-08-07T08:06:05.980Z,8.95
2017-08-07T08:08:34.058Z,8.63
2017-08-07T08:11:02.138Z,7.05
2017-08-07T08:13:30.303Z,7.90
2017-08-07T08:15:58.400Z,7.95
2017-08-07T08:18:26.406Z,7.60
2017-08-07T08:20:54.576Z,8.07
2017-08-07T08:23:22.613Z,8.23
2017-08-07T08:25:50.641Z,9.10
2017-08-07T08:28:18.804Z,6.90
2017-08-07T08:30:46.912Z,8.35
2017-08-07T08:33:15.079Z,7.43
2017-08-07T08:35:43.270Z,8.90
2017-08-07T08:38:11.298Z,6.90
2017-08-07T08:40:39.406Z,7.37
2017-08-07T08:43:07.548Z,7.03
2017-08-07T08:45:35.590Z,7.72
2017-08-07T08:48:03.669Z,7.93
2017-08-07T08:50:31.887Z,7.47
2017-08-07T08:52:59.889Z,7.28
2017-08-07T08:55:27.977Z,6.45
2017-08-07T08:57:56.232Z,7.57
2017-08-07T09:00:24.230Z,7.07
2017-08-07T09:02:52.261Z,7.90
2017-08-07T09:05:20.501Z,11.10
2017-08-07T09:07:48.529Z,9.85
2017-08-07T09:10:16.612Z,10.25
2017-08-07T09:12:44.844Z,9.63
2017-08-07T09:15:12.901Z,9.88
2017-08-07T09:17:40.943Z,10.48
2017-08-07T09:20:09.145Z,10.23
2017-08-07T09:22:37.202Z,9.50
2017-08-07T09:25:05.331Z,9.32
2017-08-07T09:27:33.481Z,10.98
2017-08-07T09:30:01.531Z,10.20
2017-08-07T09:32:29.594Z,11.10
2017-08-07T09:34:57.973Z,10.30
2017-08-07T09:37:26.030Z,11.20
2017-08-07T09:39:54.140Z,10.20
2017-08-07T09:42:22.308Z,8.85
2017-08-07T09:44:50.383Z,10.30
2017-08-07T09:47:18.476Z,11.50
2017-08-07T09:49:46.637Z,10.68
2017-08-07T09:52:14.736Z,10.07
2017-08-07T09:54:42.771Z,9.88
2017-08-07T09:57:10.988Z,10.90
2017-08-07T09:59:39.058Z,10.10
2017-08-07T10:02:07.144Z,11.98
2017-08-07T10:04:35.357Z,9.80
2017-08-07T10:07:03.380Z,11.10
2017-08-07T10:09:31.454Z,10.68
2017-08-07T10:11:59.600Z,10.13
2017-08-07T10:14:27.625Z,12.23
2017-08-07T10:16:55.682Z,10.00
2017-08-07T10:19:23.823Z,11.30
2017-08-07T10:21:51.905Z,10.90
2017-08-07T10:24:19.959Z,10.73
2017-08-07T10:26:48.145Z,8.97
2017-08-07T10:29:16.192Z,9.73
2017-08-07T10:31:44.278Z,11.07
2017-08-07T10:34:12.405Z,11.07
2017-08-07T10:36:40.552Z,10.45
2017-08-07T10:39:08.577Z,12.35
2017-08-07T10:41:36.733Z,12.23
2017-08-07T10:44:04.761Z,13.20
2017-08-07T10:46:32.802Z,13.80
2017-08-07T10:49:01.036Z,14.55
2017-08-07T10:51:29.130Z,11.98
2017-08-07T10:53:57.157Z,10.35
2017-08-07T10:56:25.336Z,11.23
2017-08-07T10:58:53.358Z,11.13
2017-08-07T11:01:21.388Z,10.90
2017-08-07T11:03:49.587Z,9.87
2017-08-07T11:06:17.686Z,10.95
2017-08-07T11:08:45.700Z,10.17
2017-08-07T11:11:13.892Z,10.10
2017-08-07T11:13:41.970Z,10.87
2017-08-07T11:16:10.038Z,11.60
2017-08-07T11:18:38.962Z,9.80
2017-08-07T11:21:06.998Z,11.40
2017-08-07T11:23:35.063Z,10.70
2017-08-07T11:26:03.220Z,11.50
2017-08-07T11:28:31.273Z,11.33
2017-08-07T11:30:59.297Z,10.87
2017-08-07T11:33:27.454Z,10.00
2017-08-07T11:35:55.524Z,10.77
2017-08-07T11:38:23.713Z,10.43
2017-08-07T11:40:51.888Z,11.10
2017-08-07T11:43:19.999Z,12.13
2017-08-07T11:45:48.094Z,11.30
2017-08-07T11:48:16.443Z,10.63
2017-08-07T11:50:44.513Z,9.80
2017-08-07T11:53:12.634Z,10.93
2017-08-07T11:55:40.786Z,10.23
2017-08-07T11:58:08.835Z,10.77
2017-08-07T12:00:36.940Z,10.53
2017-08-07T12:03:05.158Z,9.93
2017-08-07T12:05:33.214Z,11.83
2017-08-07T12:08:01.286Z,11.13
2017-08-07T12:10:29.415Z,10.10
2017-08-07T12:12:57.418Z,10.27
2017-08-07T12:15:25.556Z,11.13
2017-08-07T12:17:53.733Z,10.23
2017-08-07T12:20:21.848Z,10.63
2017-08-07T12:22:49.873Z,11.50
2017-08-07T12:25:18.054Z,11.77
2017-08-07T12:27:46.094Z,13.20
2017-08-07T12:30:14.157Z,10.50
2017-08-07T12:32:42.321Z,11.30
2017-08-07T12:35:10.373Z,12.37
2017-08-07T12:37:38.448Z,11.87
2017-08-07T12:40:06.749Z,10.27
2017-08-07T12:42:34.812Z,11.03
2017-08-07T12:45:02.906Z,11.63
2017-08-07T12:47:31.105Z,11.30
2017-08-07T12:49:59.178Z,9.97
2017-08-07T12:52:27.212Z,10.40
2017-08-07T12:54:55.400Z,9.63
2017-08-07T12:57:23.480Z,10.87
2017-08-07T12:59:51.588Z,10.60
2017-08-07T13:02:19.769Z,10.20
2017-08-07T13:04:47.859Z,10.23
2017-08-07T13:07:15.909Z,10.20
2017-08-07T13:09:44.075Z,10.10
2017-08-07T13:12:12.110Z,10.40
2017-08-07T13:14:40.159Z,9.33
2017-08-07T13:17:08.343Z,9.40
2017-08-07T13:19:36.430Z,9.80
2017-08-07T13:22:04.507Z,11.23
2017-08-07T13:24:32.874Z,9.23
2017-08-07T13:27:00.903Z,9.17
2017-08-07T13:29:28.939Z,10.00
2017-08-07T13:31:57.103Z,8.50
2017-08-07T13:34:25.152Z,9.87
2017-08-07T13:36:53.196Z,9.53
2017-08-07T13:39:21.418Z,8.93
2017-08-07T13:41:49.642Z,10.47
2017-08-07T13:44:17.656Z,10.43
2017-08-07T13:46:45.796Z,8.73
2017-08-07T13:49:13.844Z,8.40
2017-08-07T13:51:41.882Z,9.87
2017-08-07T13:54:10.066Z,9.80
2017-08-07T13:56:38.121Z,8.83
2017-08-07T13:59:06.150Z,9.87
2017-08-07T14:01:34.339Z,7.50
2017-08-07T14:04:02.397Z,9.37
2017-08-07T14:06:30.393Z,9.13
2017-08-07T14:08:58.625Z,9.20
2017-08-07T14:11:26.681Z,8.03
2017-08-07T14:13:54.696Z,10.10
2017-08-07T14:16:22.879Z,9.73
2017-08-07T14:18:50.942Z,8.63
2017-08-07T14:21:19.036Z,9.80
2017-08-07T14:23:47.224Z,9.20
2017-08-07T14:26:15.294Z,8.90
2017-08-07T14:28:43.442Z,8.00
2017-08-07T14:31:11.676Z,9.67
2017-08-07T14:33:39.748Z,8.10
2017-08-07T14:36:07.952Z,8.60
2017-08-07T14:38:36.128Z,9.30
2017-08-07T14:41:04.153Z,8.10
2017-08-07T14:43:32.374Z,10.07
2017-08-07T14:46:00.537Z,9.13
2017-08-07T14:48:28.594Z,8.33
2017-08-07T14:50:56.676Z,9.90
2017-08-07T14:53:24.844Z,8.20
2017-08-07T14:55:52.945Z,9.27
2017-08-07T14:58:20.969Z,8.10
2017-08-07T15:00:49.122Z,9.47
2017-08-07T15:03:17.178Z,9.10
2017-08-07T15:05:45.182Z,9.90
2017-08-07T15:08:13.381Z,8.60
2017-08-07T15:10:41.400Z,8.50
2017-08-07T15:13:09.473Z,8.70
2017-08-07T15:15:37.626Z,8.97
2017-08-07T15:18:05.711Z,8.63
2017-08-07T15:20:33.805Z,7.73
2017-08-07T15:23:02.013Z,8.97
2017-08-07T15:25:30.069Z,8.63
2017-08-07T15:27:58.136Z,9.60
2017-08-07T15:30:26.276Z,10.43
2017-08-07T15:32:54.308Z,10.43
2017-08-07T15:35:22.442Z,8.90
2017-08-07T15:37:50.631Z,9.03
2017-08-07T15:40:18.686Z,9.47
2017-08-07T15:42:46.778Z,9.67
2017-08-07T15:45:15.110Z,8.97
2017-08-07T15:47:43.134Z,9.13
2017-08-07T15:50:11.213Z,9.10
2017-08-07T15:52:39.364Z,9.20
2017-08-07T15:55:07.468Z,9.43
2017-08-07T15:57:35.496Z,9.03
2017-08-07T16:00:03.808Z,8.50
2017-08-07T16:02:31.862Z,8.13
2017-08-07T16:04:59.910Z,9.03
2017-08-07T16:07:28.065Z,8.73
2017-08-07T16:09:56.140Z,9.00
2017-08-07T16:12:24.211Z,8.70
2017-08-07T16:14:52.441Z,9.07
2017-08-07T16:17:20.488Z,9.00
2017-08-07T16:19:48.552Z,9.20
2017-08-07T16:22:16.777Z,10.63
2017-08-07T16:24:44.894Z,10.13
2017-08-07T16:27:12.990Z,9.70
2017-08-07T16:29:52.472Z,9.73
2017-08-07T16:32:20.557Z,9.90
2017-08-07T16:34:48.666Z,9.50
2017-08-07T16:37:16.849Z,10.07
2017-08-07T16:39:44.984Z,10.20
2017-08-07T16:42:13.090Z,9.20
2017-08-07T16:44:41.258Z,10.07
2017-08-07T16:47:09.540Z,10.57
2017-08-07T16:49:37.659Z,9.80
2017-08-07T16:52:05.851Z,10.00
2017-08-07T16:54:33.985Z,10.93
2017-08-07T16:57:02.056Z,9.50
2017-08-07T16:59:30.234Z,10.43
2017-08-07T17:01:58.298Z,11.03
2017-08-07T17:04:26.357Z,10.93
2017-08-07T17:06:54.549Z,10.47
2017-08-07T17:09:22.710Z,11.10
2017-08-07T17:11:50.792Z,12.07
2017-08-07T17:14:18.943Z,11.10
2017-08-07T17:16:46.992Z,10.60
2017-08-07T17:19:15.072Z,11.70
2017-08-07T17:21:43.266Z,11.40
2017-08-07T17:24:11.394Z,12.00
2017-08-07T17:26:39.447Z,10.90
2017-08-07T17:29:07.662Z,10.90
2017-08-07T17:31:35.702Z,11.30
2017-08-07T17:34:03.807Z,11.43
2017-08-07T17:36:31.966Z,13.17
2017-08-07T17:38:59.999Z,11.73
2017-08-07T17:41:28.070Z,11.37
2017-08-07T17:43:56.249Z,10.80
2017-08-07T17:46:24.332Z,10.73
2017-08-07T17:48:52.524Z,11.70
2017-08-07T17:51:20.739Z,11.93
2017-08-07T17:53:48.777Z,10.33
2017-08-07T17:56:16.852Z,9.87
2017-08-07T17:58:45.148Z,10.00
2017-08-07T18:01:13.230Z,11.57
2017-08-07T18:03:41.355Z,9.93
2017-08-07T18:06:09.564Z,10.37
2017-08-07T18:08:37.646Z,10.63
2017-08-07T18:11:05.726Z,11.20
2017-08-07T18:13:33.894Z,9.87
2017-08-07T18:16:01.972Z,10.23
2017-08-07T18:18:29.980Z,9.50
2017-08-07T18:20:58.189Z,11.00
2017-08-07T18:23:26.299Z,11.07
2017-08-07T18:25:54.378Z,9.17
2017-08-07T18:28:22.605Z,10.23
2017-08-07T18:30:50.674Z,9.87
2017-08-07T18:33:18.773Z,9.90
2017-08-07T18:35:46.955Z,10.07
2017-08-07T18:38:15.053Z,10.47
2017-08-07T18:40:43.103Z,9.80
2017-08-07T18:43:11.310Z,8.70
2017-08-07T18:45:39.352Z,9.53
2017-08-07T18:48:07.493Z,10.30
2017-08-07T18:50:35.816Z,9.50
2017-08-07T18:53:03.938Z,10.83
2017-08-07T18:55:32.046Z,11.10
2017-08-07T18:58:00.231Z,10.97
2017-08-07T19:00:28.332Z,10.60
2017-08-07T19:02:56.352Z,9.60
2017-08-07T19:05:24.569Z,10.10
2017-08-07T19:07:52.680Z,10.80
2017-08-07T19:10:20.754Z,9.60
2017-08-07T19:12:48.915Z,9.87
2017-08-07T19:15:16.970Z,9.67
2017-08-07T19:17:45.015Z,10.37
2017-08-07T19:20:13.194Z,12.33
2017-08-07T19:22:41.267Z,9.60
2017-08-07T19:25:09.294Z,10.90
2017-08-07T19:27:37.419Z,9.57
2017-08-07T19:30:05.476Z,9.77
2017-08-07T19:32:33.562Z,11.10
2017-08-07T19:35:01.725Z,10.23
2017-08-07T19:37:29.845Z,9.97
2017-08-07T19:52:56.172Z,9.30
2017-08-07T19:55:24.230Z,11.27
2017-08-07T19:57:52.308Z,9.40
2017-08-07T20:00:20.470Z,10.20
2017-08-07T20:02:48.593Z,10.20
2017-08-07T20:05:16.671Z,8.83
2017-08-07T20:07:44.868Z,10.33
2017-08-07T20:10:12.935Z,9.50
2017-08-07T20:12:40.994Z,9.60
2017-08-07T20:15:09.202Z,9.13
2017-08-07T20:17:37.252Z,9.33
2017-08-07T20:20:05.429Z,9.07
2017-08-07T20:22:33.641Z,8.73
2017-08-07T20:25:01.726Z,10.80
2017-08-07T20:27:29.784Z,11.50
2017-08-07T20:29:57.929Z,10.60
2017-08-07T20:32:25.994Z,11.17
2017-08-07T20:34:54.122Z,10.47
2017-08-07T20:37:22.319Z,10.73
2017-08-07T20:39:50.365Z,12.30
2017-08-07T20:42:18.450Z,11.03
2017-08-07T20:44:46.619Z,11.90
2017-08-07T20:47:14.787Z,9.90
2017-08-07T20:49:42.817Z,11.73
2017-08-07T20:52:11.005Z,10.87
2017-08-07T20:54:39.208Z,11.93
2017-08-07T20:57:07.277Z,12.63
2017-08-07T20:59:35.476Z,12.70
2017-08-07T21:02:03.554Z,13.17
2017-08-07T21:04:31.645Z,11.10
2017-08-07T21:06:59.825Z,11.93
2017-08-07T21:09:27.889Z,11.87
2017-08-07T21:11:55.979Z,10.47
2017-08-07T21:14:24.133Z,13.33
2017-08-07T21:16:52.153Z,10.73
2017-08-07T21:19:20.190Z,11.10
2017-08-07T21:21:48.355Z,11.33
2017-08-07T21:24:16.396Z,12.40
2017-08-07T21:26:44.496Z,11.60
2017-08-07T21:29:12.637Z,11.90
2017-08-07T21:31:40.709Z,11.00
2017-08-07T21:34:08.758Z,11.17
2017-08-07T21:36:36.958Z,11.07
2017-08-07T21:39:05.120Z,11.57
2017-08-07T21:41:33.193Z,10.50
2017-08-07T21:44:01.392Z,10.63
2017-08-07T21:46:29.465Z,10.17
2017-08-07T21:48:57.564Z,10.33
2017-08-07T21:51:25.809Z,10.57
2017-08-07T21:53:53.869Z,9.60
2017-08-07T21:56:22.094Z,9.90
2017-08-07T21:58:50.343Z,10.50
2017-08-07T22:01:18.392Z,9.37
2017-08-07T22:03:46.461Z,9.80
2017-08-07T22:06:14.650Z,10.90
2017-08-07T22:08:42.696Z,11.03
2017-08-07T22:11:10.790Z,10.93
2017-08-07T22:13:38.961Z,10.30
2017-08-07T22:16:07.021Z,11.37
2017-08-07T22:18:35.034Z,9.30
2017-08-07T22:21:03.245Z,10.33
2017-08-07T22:23:31.300Z,10.30
2017-08-07T22:25:59.398Z,11.30
2017-08-07T22:28:27.593Z,11.30
2017-08-07T22:30:55.660Z,12.00
2017-08-07T22:33:23.757Z,12.30
2017-08-07T22:35:51.950Z,12.50
2017-08-07T22:38:20.048Z,11.10
2017-08-07T22:40:48.089Z,14.07
2017-08-07T22:43:16.214Z,14.20
2017-08-07T22:45:44.236Z,12.53
2017-08-07T22:48:12.310Z,13.63
2017-08-07T22:50:40.548Z,14.80
2017-08-07T22:53:08.652Z,16.00
2017-08-07T22:55:36.714Z,15.17
2017-08-07T22:58:04.994Z,16.00
2017-08-07T23:00:33.073Z,14.83
2017-08-07T23:03:01.162Z,14.90
2017-08-07T23:05:29.380Z,14.10
2017-08-07T23:07:57.457Z,13.57
2017-08-07T23:10:25.486Z,14.90
2017-08-07T23:12:53.670Z,13.50
2017-08-07T23:15:21.690Z,12.70
2017-08-07T23:17:49.754Z,13.47
2017-08-07T23:20:17.912Z,12.63
2017-08-07T23:22:46.006Z,13.03
2017-08-07T23:25:14.050Z,13.87
2017-08-07T23:27:42.258Z,13.57
2017-08-07T23:30:10.380Z,14.60
2017-08-07T23:32:38.381Z,13.00
2017-08-07T23:35:06.567Z,13.67
2017-08-07T23:37:34.610Z,12.03
2017-08-07T23:40:02.678Z,11.90
2017-08-07T23:42:30.835Z,12.80
2017-08-07T23:44:58.857Z,11.70
2017-08-07T23:47:26.928Z,12.30
2017-08-07T23:49:55.121Z,11.53
2017-08-07T23:52:23.211Z,12.80
2017-08-07T23:54:51.214Z,12.50
2017-08-07T23:57:19.362Z,12.60
2017-08-07T23:59:47.552Z,13.57
